Time;durP1;ratioP1;P1;durP2;ratioP2;P2;SDS_P1;SDS_P2;PMS_P1;PMS_P2;Temp;Humidity;BMP_temperature;BMP_pressure;BME280_temperature;BME280_humidity;BME280_pressure;Samples;Min_cycle;Max_cycle;Signal;HPM_P1;HPM_P2
2023/12/14 00:02:01;;;;;;;6.10;5.80;;;7.00;99.90;;;;;;5011031;28;20197;-73
2023/12/14 00:04:28;;;;;;;6.00;5.70;;;6.90;99.90;;;;;;5010829;28;20681;-72
2023/12/14 00:06:55;;;;;;;5.63;5.43;;;6.80;99.90;;;;;;5015029;28;20215;-72
2023/12/14 00:09:22;;;;;;;5.80;5.60;;;6.80;99.90;;;;;;4998199;28;20331;-72
2023/12/14 00:11:49;;;;;;;5.60;5.40;;;6.70;99.90;;;;;;5005547;28;20200;-72
2023/12/14 00:14:16;;;;;;;5.50;5.30;;;6.70;99.90;;;;;;5006770;28;20204;-71
2023/12/14 00:16:43;;;;;;;5.10;4.90;;;6.70;99.90;;;;;;4988848;28;20205;-71
2023/12/14 00:19:10;;;;;;;4.70;4.50;;;6.60;99.90;;;;;;4993001;28;20228;-64
2023/12/14 00:21:37;;;;;;;4.50;4.30;;;6.60;99.90;;;;;;5003432;28;20202;-64
2023/12/14 00:24:04;;;;;;;4.80;4.60;;;6.60;99.90;;;;;;4997641;28;20204;-64
2023/12/14 00:26:31;;;;;;;4.60;4.40;;;6.60;99.90;;;;;;5005280;28;20228;-64
2023/12/14 00:28:58;;;;;;;4.73;4.53;;;6.60;99.90;;;;;;4992114;28;20220;-64
2023/12/14 00:31:28;;;;;;;4.70;4.50;;;6.70;99.90;;;;;;5010448;28;20224;-65
2023/12/14 00:33:55;;;;;;;4.57;4.37;;;6.70;99.90;;;;;;4989607;28;20201;-64
2023/12/14 00:36:22;;;;;;;4.90;4.70;;;6.80;99.90;;;;;;4989955;28;20201;-65
2023/12/14 00:38:49;;;;;;;4.90;4.70;;;6.70;99.90;;;;;;5002062;28;20574;-65
2023/12/14 00:41:16;;;;;;;5.00;4.80;;;6.80;99.90;;;;;;5016929;28;20200;-65
2023/12/14 00:43:43;;;;;;;5.00;4.80;;;6.70;99.90;;;;;;5010191;28;20197;-65
2023/12/14 00:46:11;;;;;;;5.10;4.90;;;6.70;99.90;;;;;;4989637;28;20244;-65
2023/12/14 00:48:38;;;;;;;5.10;4.90;;;6.70;99.90;;;;;;5007878;28;20193;-65
2023/12/14 00:51:05;;;;;;;4.90;4.70;;;6.80;99.90;;;;;;4991299;28;20193;-65
2023/12/14 00:53:32;;;;;;;5.20;5.00;;;6.80;99.90;;;;;;4991221;28;20255;-64
2023/12/14 00:55:59;;;;;;;5.07;4.87;;;6.70;99.90;;;;;;4978249;28;20197;-65
2023/12/14 00:58:26;;;;;;;6.07;5.77;;;6.70;99.90;;;;;;4996703;28;20629;-65
2023/12/14 01:00:54;;;;;;;4.83;4.63;;;6.60;99.90;;;;;;5006346;28;20284;-68
2023/12/14 01:03:22;;;;;;;5.30;5.10;;;6.60;99.90;;;;;;5005334;28;20201;-66
2023/12/14 01:05:49;;;;;;;5.00;4.80;;;6.60;99.90;;;;;;4986383;28;20189;-68
2023/12/14 01:08:16;;;;;;;5.03;4.83;;;6.50;99.90;;;;;;5008402;28;20221;-68
2023/12/14 01:10:43;;;;;;;5.20;5.00;;;6.40;99.90;;;;;;5006657;28;20260;-68
2023/12/14 01:13:10;;;;;;;5.20;5.00;;;6.40;99.90;;;;;;4986338;28;20292;-68
2023/12/14 01:15:37;;;;;;;8.30;7.80;;;6.40;99.90;;;;;;5007508;28;20765;-68
2023/12/14 01:18:05;;;;;;;5.00;4.80;;;6.40;99.90;;;;;;5007148;28;20201;-68
2023/12/14 01:20:32;;;;;;;5.10;4.90;;;6.50;99.90;;;;;;5006680;28;20517;-68
2023/12/14 01:22:59;;;;;;;5.00;4.80;;;6.40;99.90;;;;;;5003869;28;20221;-65
2023/12/14 01:25:26;;;;;;;4.80;4.60;;;6.50;99.90;;;;;;5004346;28;20618;-67
2023/12/14 01:27:53;;;;;;;5.00;4.80;;;6.50;99.90;;;;;;5006693;28;20304;-67
2023/12/14 01:30:20;;;;;;;5.10;4.90;;;6.50;99.90;;;;;;5006532;28;20541;-66
2023/12/14 01:32:47;;;;;;;4.90;4.70;;;6.50;99.90;;;;;;4987818;28;20498;-66
2023/12/14 01:35:14;;;;;;;5.13;4.93;;;6.40;99.90;;;;;;5005782;28;20602;-65
2023/12/14 01:37:41;;;;;;;5.03;4.83;;;6.30;99.90;;;;;;5003769;28;20295;-66
2023/12/14 01:40:09;;;;;;;5.00;4.80;;;6.40;99.90;;;;;;5007355;28;20213;-65
2023/12/14 01:42:36;;;;;;;4.90;4.70;;;6.40;99.90;;;;;;4981871;28;20198;-66
2023/12/14 01:45:04;;;;;;;5.10;4.90;;;6.30;99.90;;;;;;4996527;28;20583;-66
2023/12/14 01:47:31;;;;;;;5.10;4.90;;;6.30;99.90;;;;;;4985782;28;20951;-67
2023/12/14 01:49:58;;;;;;;6.90;6.60;;;6.30;99.90;;;;;;4994920;28;20867;-66
2023/12/14 01:52:25;;;;;;;5.13;4.93;;;6.20;99.90;;;;;;4988427;28;20548;-69
2023/12/14 01:54:55;;;;;;;5.00;4.80;;;6.30;99.90;;;;;;5007198;28;20278;-66
2023/12/14 01:57:22;;;;;;;5.30;5.10;;;6.30;99.90;;;;;;5004056;28;20265;-66
2023/12/14 01:59:49;;;;;;;5.30;5.10;;;6.30;99.90;;;;;;5005240;28;20221;-66
2023/12/14 02:02:16;;;;;;;5.10;4.90;;;6.30;99.90;;;;;;4989169;28;20204;-67
2023/12/14 02:04:43;;;;;;;5.10;4.90;;;6.20;99.90;;;;;;5005447;28;20545;-66
2023/12/14 02:07:10;;;;;;;5.10;4.90;;;6.30;99.90;;;;;;4992919;28;20217;-67
2023/12/14 02:09:38;;;;;;;4.90;4.70;;;6.30;99.90;;;;;;5006191;28;20197;-67
2023/12/14 02:12:05;;;;;;;4.90;4.70;;;6.30;99.90;;;;;;5005576;28;20545;-67
2023/12/14 02:14:32;;;;;;;5.20;5.00;;;6.30;99.90;;;;;;5002485;28;20193;-66
2023/12/14 02:16:59;;;;;;;5.57;5.37;;;6.20;99.90;;;;;;5001232;28;20336;-65
2023/12/14 02:19:26;;;;;;;5.60;5.40;;;6.10;99.90;;;;;;5006124;28;20196;-63
2023/12/14 02:21:53;;;;;;;5.40;5.20;;;6.10;99.90;;;;;;4982743;28;20217;-63
2023/12/14 02:24:20;;;;;;;5.50;5.30;;;6.00;99.90;;;;;;5007999;28;20505;-63
2023/12/14 02:26:47;;;;;;;5.60;5.40;;;6.10;99.90;;;;;;5002616;28;20264;-64
2023/12/14 02:29:29;;;;;;;5.30;5.10;;;6.10;99.90;;;;;;5013454;28;20181;-62
2023/12/14 02:31:56;;;;;;;5.40;5.20;;;6.20;99.90;;;;;;4996455;28;20211;-64
2023/12/14 02:34:24;;;;;;;5.57;5.37;;;6.10;99.90;;;;;;4994400;28;20205;-67
2023/12/14 02:36:52;;;;;;;5.80;5.60;;;6.10;99.90;;;;;;4978521;28;20283;-66
2023/12/14 02:39:19;;;;;;;5.70;5.50;;;6.10;99.90;;;;;;5005018;28;20197;-71
2023/12/14 02:41:46;;;;;;;5.83;5.63;;;6.10;99.90;;;;;;5005852;28;20189;-71
2023/12/14 02:44:13;;;;;;;6.30;6.00;;;6.10;99.90;;;;;;5005766;28;20619;-71
2023/12/14 02:46:40;;;;;;;6.10;5.80;;;6.20;99.90;;;;;;5006504;28;20199;-70
2023/12/14 02:49:07;;;;;;;6.40;6.10;;;6.20;99.90;;;;;;5001924;28;20197;-71
2023/12/14 02:51:34;;;;;;;6.30;6.00;;;6.10;99.90;;;;;;5006875;28;20197;-72
2023/12/14 02:54:01;;;;;;;6.20;5.90;;;6.20;99.90;;;;;;4996337;28;20666;-71
2023/12/14 02:56:28;;;;;;;6.30;6.00;;;6.20;99.90;;;;;;4991468;28;20189;-71
2023/12/14 02:58:55;;;;;;;6.10;5.80;;;6.20;99.90;;;;;;4971485;28;20739;-72
2023/12/14 03:05:22;;;;;;;6.30;6.00;;;6.10;99.90;;;;;;4999995;28;20240;-71
2023/12/14 03:07:49;;;;;;;6.53;6.23;;;6.10;99.90;;;;;;4989261;28;20213;-71
2023/12/14 03:10:16;;;;;;;6.37;6.07;;;6.00;99.90;;;;;;5009686;28;20240;-70
2023/12/14 03:12:43;;;;;;;6.80;6.50;;;6.00;99.90;;;;;;4991690;28;20201;-71
2023/12/14 03:15:10;;;;;;;6.70;6.40;;;6.00;99.90;;;;;;4992459;28;20210;-71
2023/12/14 03:17:37;;;;;;;8.47;8.07;;;6.00;99.90;;;;;;4991306;28;20654;-66
2023/12/14 03:20:06;;;;;;;7.20;6.90;;;5.90;99.90;;;;;;4992442;28;20268;-68
2023/12/14 03:22:33;;;;;;;6.90;6.60;;;5.90;99.90;;;;;;5009475;28;20601;-66
2023/12/14 03:25:01;;;;;;;7.00;6.70;;;5.90;99.90;;;;;;5005918;28;20212;-66
2023/12/14 03:27:27;;;;;;;6.93;6.63;;;5.90;99.90;;;;;;5010305;28;20548;-66
2023/12/14 03:29:55;;;;;;;6.97;6.67;;;6.00;99.90;;;;;;4995739;28;20265;-66
2023/12/14 03:32:22;;;;;;;7.00;6.70;;;6.00;99.90;;;;;;5011688;28;20509;-66
2023/12/14 03:34:49;;;;;;;7.00;6.70;;;6.10;99.90;;;;;;5003561;28;20201;-65
2023/12/14 03:37:16;;;;;;;7.00;6.70;;;6.10;99.90;;;;;;5000035;28;21025;-66
2023/12/14 03:39:43;;;;;;;6.90;6.60;;;6.10;99.90;;;;;;4992837;28;20280;-66
2023/12/14 03:42:10;;;;;;;6.73;6.43;;;6.00;99.90;;;;;;4989319;28;20229;-66
2023/12/14 03:44:37;;;;;;;7.20;6.90;;;6.00;99.90;;;;;;5008520;28;20200;-66
2023/12/14 03:47:04;;;;;;;6.83;6.53;;;6.00;99.90;;;;;;5004637;28;20216;-65
2023/12/14 03:49:36;;;;;;;7.03;6.73;;;6.10;99.90;;;;;;5007051;28;20273;-71
2023/12/14 03:52:03;;;;;;;7.00;6.70;;;6.10;99.90;;;;;;4986750;28;20576;-71
2023/12/14 03:54:30;;;;;;;7.40;7.10;;;6.10;99.90;;;;;;5006822;28;20251;-71
2023/12/14 03:56:57;;;;;;;7.40;7.10;;;6.10;99.90;;;;;;5009999;28;20204;-71
2023/12/14 03:59:24;;;;;;;7.70;7.40;;;6.00;99.90;;;;;;4988522;28;20189;-71
2023/12/14 04:01:51;;;;;;;7.50;7.20;;;5.90;99.90;;;;;;5006228;28;21048;-70
2023/12/14 04:04:18;;;;;;;8.07;7.67;;;5.90;99.90;;;;;;5005707;28;20242;-71
2023/12/14 04:06:44;;;;;;;7.70;7.40;;;5.80;99.90;;;;;;5004412;28;20267;-72
2023/12/14 04:09:11;;;;;;;7.80;7.50;;;5.80;99.90;;;;;;4988585;28;20213;-72
2023/12/14 04:11:38;;;;;;;7.60;7.30;;;5.80;99.90;;;;;;5009454;28;20192;-69
2023/12/14 04:14:05;;;;;;;7.53;7.23;;;5.70;99.90;;;;;;4997609;28;20623;-73
2023/12/14 04:16:32;;;;;;;7.50;7.20;;;5.70;99.90;;;;;;5002860;28;20277;-73
2023/12/14 04:19:00;;;;;;;8.00;7.60;;;5.70;99.90;;;;;;4991590;28;20231;-71
2023/12/14 04:21:27;;;;;;;7.73;7.43;;;5.70;99.90;;;;;;5004489;28;20276;-73
2023/12/14 04:23:54;;;;;;;8.20;7.80;;;5.70;99.90;;;;;;5010517;28;20820;-74
2023/12/14 04:26:21;;;;;;;7.80;7.50;;;5.70;99.90;;;;;;5008386;28;20193;-73
2023/12/14 04:28:50;;;;;;;7.83;7.50;;;5.70;99.90;;;;;;5007791;28;20202;-65
2023/12/14 04:31:17;;;;;;;7.60;7.30;;;5.60;99.90;;;;;;5005825;28;20201;-65
2023/12/14 04:33:44;;;;;;;8.20;7.80;;;5.60;99.90;;;;;;4985851;28;20197;-65
2023/12/14 04:36:11;;;;;;;7.60;7.30;;;5.60;99.90;;;;;;4979452;28;20224;-65
2023/12/14 04:38:38;;;;;;;7.50;7.20;;;5.70;99.90;;;;;;4999990;28;20569;-65
2023/12/14 04:41:05;;;;;;;7.57;7.27;;;5.70;99.90;;;;;;5002359;28;20247;-64
2023/12/14 04:43:32;;;;;;;7.10;6.80;;;5.70;99.90;;;;;;4988247;28;20193;-66
2023/12/14 04:45:59;;;;;;;7.27;6.97;;;5.80;99.90;;;;;;4985808;28;20279;-67
2023/12/14 04:48:26;;;;;;;7.10;6.80;;;5.90;99.90;;;;;;5000134;28;20208;-66
2023/12/14 04:50:53;;;;;;;7.10;6.80;;;5.90;99.90;;;;;;5003251;28;20227;-66
2023/12/14 04:53:20;;;;;;;7.10;6.80;;;5.90;99.90;;;;;;4998326;28;20197;-66
2023/12/14 04:55:48;;;;;;;7.30;7.00;;;6.00;99.90;;;;;;5006545;28;20761;-64
2023/12/14 04:58:15;;;;;;;7.60;7.30;;;5.90;99.90;;;;;;5002160;28;20272;-71
2023/12/14 05:00:42;;;;;;;7.27;6.97;;;5.80;99.90;;;;;;4982647;28;20209;-72
2023/12/14 05:03:10;;;;;;;7.40;7.10;;;5.80;99.90;;;;;;5006155;28;20241;-72
2023/12/14 05:05:37;;;;;;;7.47;7.17;;;5.90;99.90;;;;;;5004869;28;20251;-71
2023/12/14 05:08:04;;;;;;;7.70;7.40;;;5.90;99.90;;;;;;5002798;28;20212;-71
2023/12/14 05:10:31;;;;;;;8.10;7.70;;;5.80;99.90;;;;;;4995712;28;20197;-69
2023/12/14 05:13:00;;;;;;;8.20;7.80;;;5.80;99.90;;;;;;5009937;28;20188;-71
2023/12/14 05:15:27;;;;;;;8.20;7.80;;;5.80;99.90;;;;;;4990011;28;20190;-70
2023/12/14 05:17:54;;;;;;;8.20;7.80;;;5.90;99.90;;;;;;4973350;28;20197;-70
2023/12/14 05:20:21;;;;;;;8.63;8.23;;;5.90;99.90;;;;;;5003842;28;20251;-72
2023/12/14 05:22:48;;;;;;;8.63;8.23;;;5.90;99.90;;;;;;4985948;28;20686;-71
2023/12/14 05:25:16;;;;;;;8.30;7.90;;;5.80;99.90;;;;;;5006636;28;20197;-72
2023/12/14 05:27:43;;;;;;;8.87;8.47;;;5.80;99.90;;;;;;4985750;28;20310;-72
2023/12/14 05:30:10;;;;;;;8.90;8.50;;;5.90;99.90;;;;;;5002548;28;20695;-73
2023/12/14 05:32:37;;;;;;;9.10;8.70;;;5.80;99.90;;;;;;4988103;28;20268;-71
2023/12/14 05:35:06;;;;;;;9.30;8.90;;;5.80;99.90;;;;;;4981626;28;20295;-72
2023/12/14 05:37:33;;;;;;;9.20;8.80;;;5.80;99.90;;;;;;5007953;28;20564;-71
2023/12/14 05:40:00;;;;;;;9.30;8.90;;;5.80;99.90;;;;;;5010156;28;20689;-72
2023/12/14 05:42:27;;;;;;;9.20;8.80;;;5.80;99.90;;;;;;5006673;28;20224;-72
2023/12/14 05:44:54;;;;;;;10.13;9.63;;;5.80;99.90;;;;;;5009455;28;20227;-72
2023/12/14 05:47:21;;;;;;;8.97;8.57;;;5.80;99.90;;;;;;4976175;28;20240;-72
2023/12/14 05:49:48;;;;;;;8.90;8.50;;;5.80;99.90;;;;;;5009393;28;20193;-71
2023/12/14 05:52:15;;;;;;;9.00;8.60;;;5.90;99.90;;;;;;4985159;28;20684;-72
2023/12/14 05:54:42;;;;;;;9.00;8.60;;;5.80;99.90;;;;;;4991596;28;20231;-72
2023/12/14 05:57:12;;;;;;;8.90;8.50;;;5.90;99.90;;;;;;5009800;28;20629;-72
2023/12/14 05:59:40;;;;;;;9.20;8.80;;;5.90;99.90;;;;;;4992872;28;20262;-73
2023/12/14 06:02:07;;;;;;;9.17;8.77;;;5.80;99.90;;;;;;5000879;28;20276;-72
2023/12/14 06:04:34;;;;;;;9.30;8.90;;;5.90;99.90;;;;;;4983255;28;20287;-72
2023/12/14 06:07:02;;;;;;;9.67;9.20;;;5.80;99.90;;;;;;5005519;28;20287;-71
2023/12/14 06:09:33;;;;;;;10.20;9.70;;;5.80;99.90;;;;;;4971160;28;20816;-66
2023/12/14 06:12:04;;;;;;;10.17;9.67;;;5.80;99.90;;;;;;5008906;28;20633;-66
2023/12/14 06:14:31;;;;;;;10.43;9.93;;;5.70;99.90;;;;;;5009178;28;20287;-66
2023/12/14 06:16:58;;;;;;;11.90;11.30;;;5.50;99.90;;;;;;4991619;28;20207;-66
2023/12/14 06:19:25;;;;;;;9.60;9.20;;;5.50;99.90;;;;;;4992816;28;20285;-72
2023/12/14 06:21:52;;;;;;;9.73;9.30;;;5.50;99.90;;;;;;5013675;28;20219;-72
2023/12/14 06:24:20;;;;;;;9.60;9.20;;;5.50;99.90;;;;;;5008823;28;20193;-72
2023/12/14 06:26:48;;;;;;;9.80;9.30;;;5.40;99.90;;;;;;5008833;28;20336;-72
2023/12/14 06:29:15;;;;;;;9.47;9.07;;;5.40;99.90;;;;;;5004062;28;20259;-73
2023/12/14 06:31:42;;;;;;;9.10;8.70;;;5.30;99.90;;;;;;5006683;28;20292;-72
2023/12/14 06:34:09;;;;;;;9.10;8.70;;;5.40;99.90;;;;;;4990771;28;20208;-72
2023/12/14 06:36:41;;;;;;;9.33;8.93;;;5.40;99.90;;;;;;4974897;28;20197;-73
2023/12/14 06:39:08;;;;;;;8.80;8.40;;;5.40;99.90;;;;;;5023568;28;20259;-72
2023/12/14 06:41:35;;;;;;;8.70;8.30;;;5.40;99.90;;;;;;5013706;28;20189;-70
2023/12/14 06:44:02;;;;;;;8.60;8.20;;;5.40;99.90;;;;;;5013625;28;20267;-71
2023/12/14 06:46:29;;;;;;;8.80;8.40;;;5.50;99.90;;;;;;5009589;28;20225;-71
2023/12/14 06:48:56;;;;;;;8.60;8.20;;;5.60;99.90;;;;;;5013421;28;20670;-72
2023/12/14 06:51:24;;;;;;;8.50;8.10;;;5.60;99.90;;;;;;5011865;28;20203;-71
2023/12/14 06:53:51;;;;;;;8.43;8.03;;;5.60;99.90;;;;;;4993793;28;20205;-71
2023/12/14 06:56:18;;;;;;;8.80;8.40;;;5.60;99.90;;;;;;5003689;28;20193;-71
2023/12/14 06:58:45;;;;;;;8.90;8.50;;;5.60;99.90;;;;;;4993389;28;20215;-65
2023/12/14 07:01:16;;;;;;;9.80;9.33;;;5.70;99.90;;;;;;5010018;28;20197;-66
2023/12/14 07:03:44;;;;;;;9.20;8.80;;;5.70;99.90;;;;;;5011422;28;20261;-65
2023/12/14 07:06:15;;;;;;;9.10;8.70;;;5.80;99.90;;;;;;5001568;28;20315;-65
2023/12/14 07:08:43;;;;;;;9.17;8.77;;;5.70;99.90;;;;;;5007924;28;20216;-65
2023/12/14 07:11:11;;;;;;;9.27;8.87;;;5.70;99.90;;;;;;5011455;28;20184;-65
2023/12/14 07:13:39;;;;;;;9.20;8.80;;;5.70;99.90;;;;;;4993617;28;20189;-66
2023/12/14 07:16:07;;;;;;;9.20;8.80;;;5.60;99.90;;;;;;5010726;28;20216;-65
2023/12/14 07:18:38;;;;;;;9.57;9.17;;;5.60;99.90;;;;;;4993780;28;20378;-65
2023/12/14 07:21:06;;;;;;;9.43;9.03;;;5.70;99.90;;;;;;4994325;28;20216;-65
2023/12/14 07:23:35;;;;;;;9.53;9.13;;;5.70;99.90;;;;;;5011887;28;20204;-65
2023/12/14 07:26:02;;;;;;;9.57;9.17;;;5.70;99.90;;;;;;5011303;28;20828;-64
2023/12/14 07:28:33;;;;;;;9.50;9.10;;;5.70;99.90;;;;;;5010810;28;20229;-64
2023/12/14 07:31:00;;;;;;;9.40;9.00;;;5.60;99.90;;;;;;5019286;28;20357;-66
2023/12/14 07:33:27;;;;;;;9.70;9.30;;;5.60;99.90;;;;;;5008115;28;20192;-65
2023/12/14 07:35:54;;;;;;;10.00;9.50;;;5.60;99.90;;;;;;5010831;28;20201;-65
2023/12/14 07:38:21;;;;;;;9.57;9.17;;;5.60;99.90;;;;;;5010968;28;20263;-71
2023/12/14 07:40:50;;;;;;;9.30;8.90;;;5.60;99.90;;;;;;4993784;28;20423;-72
2023/12/14 07:43:17;;;;;;;10.00;9.50;;;5.60;99.90;;;;;;5011401;28;20603;-71
2023/12/14 07:45:45;;;;;;;9.30;8.90;;;5.60;99.90;;;;;;4997039;28;20197;-71
2023/12/14 07:48:13;;;;;;;9.43;9.03;;;5.70;99.90;;;;;;4985198;28;20217;-72
2023/12/14 07:50:40;;;;;;;9.50;9.10;;;5.70;99.90;;;;;;5007830;28;20196;-71
2023/12/14 07:53:07;;;;;;;9.50;9.10;;;5.70;99.90;;;;;;4994968;28;20208;-72
2023/12/14 07:55:34;;;;;;;9.90;9.40;;;5.70;99.90;;;;;;5011374;28;20189;-71
2023/12/14 07:58:01;;;;;;;9.30;8.90;;;5.60;99.90;;;;;;4995154;28;20192;-71
2023/12/14 08:00:31;;;;;;;9.07;8.67;;;5.60;99.90;;;;;;5012967;28;20189;-72
2023/12/14 08:02:58;;;;;;;9.37;8.97;;;5.60;99.90;;;;;;5011987;28;20619;-68
2023/12/14 08:05:25;;;;;;;9.30;8.90;;;5.60;99.90;;;;;;5008265;28;20543;-71
2023/12/14 08:07:52;;;;;;;9.40;9.00;;;5.70;99.90;;;;;;5011539;28;20661;-71
2023/12/14 08:10:20;;;;;;;9.43;9.03;;;5.60;99.90;;;;;;5012050;28;20260;-70
2023/12/14 08:12:47;;;;;;;9.67;9.27;;;5.60;99.90;;;;;;5012348;28;20953;-71
2023/12/14 08:15:14;;;;;;;9.90;9.40;;;5.60;99.90;;;;;;4994945;28;20200;-72
2023/12/14 08:17:42;;;;;;;9.60;9.20;;;5.60;99.90;;;;;;5009386;28;20596;-71
2023/12/14 08:20:11;;;;;;;10.00;9.50;;;5.70;99.90;;;;;;5012317;28;20243;-70
2023/12/14 08:22:44;;;;;;;12.53;11.83;;;5.60;99.90;;;;;;5011908;28;20685;-72
2023/12/14 08:25:15;;;;;;;10.23;9.73;;;5.60;99.90;;;;;;5005958;28;20185;-71
2023/12/14 08:27:43;;;;;;;10.07;9.57;;;5.60;99.90;;;;;;4977643;28;20236;-69
2023/12/14 08:30:12;;;;;;;10.20;9.70;;;5.50;99.90;;;;;;5001088;28;20234;-71
2023/12/14 08:32:39;;;;;;;10.10;9.60;;;5.40;99.90;;;;;;5011594;28;20253;-70
2023/12/14 08:35:07;;;;;;;9.90;9.40;;;5.50;99.90;;;;;;5011039;28;20193;-71
2023/12/14 08:37:35;;;;;;;10.50;10.00;;;5.40;99.90;;;;;;5021414;28;20389;-71
2023/12/14 08:40:05;;;;;;;10.50;10.00;;;5.30;99.90;;;;;;4995902;28;20215;-72
2023/12/14 08:42:32;;;;;;;10.07;9.57;;;5.30;99.90;;;;;;4993840;28;20247;-72
2023/12/14 08:44:59;;;;;;;10.17;9.67;;;5.30;99.90;;;;;;5004732;28;20201;-72
2023/12/14 08:47:26;;;;;;;10.13;9.63;;;5.40;99.90;;;;;;4982054;28;20201;-71
2023/12/14 08:49:53;;;;;;;10.30;9.80;;;5.50;99.90;;;;;;4992514;28;20278;-64
2023/12/14 08:52:20;;;;;;;10.60;10.10;;;5.40;99.90;;;;;;4991845;28;20199;-65
2023/12/14 08:54:47;;;;;;;10.70;10.20;;;5.40;99.90;;;;;;5003220;28;20535;-65
2023/12/14 08:57:14;;;;;;;10.80;10.30;;;5.30;99.90;;;;;;5010627;28;20205;-65
2023/12/14 08:59:41;;;;;;;10.37;9.87;;;5.30;99.90;;;;;;5009545;28;20227;-66
2023/12/14 09:02:10;;;;;;;10.10;9.60;;;5.40;99.90;;;;;;5008471;28;20201;-65
2023/12/14 09:04:38;;;;;;;10.00;9.50;;;5.40;99.90;;;;;;5010311;28;20687;-65
2023/12/14 09:07:05;;;;;;;10.60;10.10;;;5.50;99.90;;;;;;5005629;28;20281;-71
2023/12/14 09:09:32;;;;;;;10.43;9.93;;;5.50;99.90;;;;;;5005167;28;20678;-65
2023/12/14 09:11:59;;;;;;;10.60;10.10;;;5.50;99.90;;;;;;5005270;28;20196;-65
2023/12/14 09:14:26;;;;;;;10.43;9.93;;;5.50;99.90;;;;;;5009656;28;20216;-65
2023/12/14 09:16:53;;;;;;;10.70;10.20;;;5.50;99.90;;;;;;4991434;28;20200;-65
2023/12/14 09:19:21;;;;;;;12.83;12.23;;;5.50;99.90;;;;;;5009066;28;20189;-65
2023/12/14 09:21:48;;;;;;;10.50;10.00;;;5.40;99.90;;;;;;4991140;28;20224;-65
2023/12/14 09:24:15;;;;;;;10.40;9.90;;;5.40;99.90;;;;;;5002363;28;20201;-66
2023/12/14 09:26:42;;;;;;;10.17;9.67;;;5.50;99.90;;;;;;5009829;28;20240;-67
2023/12/14 09:29:10;;;;;;;10.80;10.30;;;5.60;99.90;;;;;;5010121;28;20216;-66
2023/12/14 09:31:40;;;;;;;10.50;10.00;;;5.50;99.90;;;;;;5008665;28;20283;-66
2023/12/14 09:34:08;;;;;;;10.80;10.30;;;5.60;99.90;;;;;;5009205;28;20193;-66
2023/12/14 09:36:35;;;;;;;10.70;10.20;;;5.60;99.90;;;;;;5007951;28;20197;-63
2023/12/14 09:39:03;;;;;;;10.87;10.37;;;5.60;99.90;;;;;;5009272;28;20251;-66
2023/12/14 09:41:30;;;;;;;10.80;10.30;;;5.60;99.90;;;;;;5009627;28;20258;-75
2023/12/14 09:43:59;;;;;;;31.33;22.97;;;5.60;99.90;;;;;;5010091;28;20211;-66
2023/12/14 09:46:27;;;;;;;11.20;10.70;;;5.50;99.90;;;;;;5009741;28;20197;-66
2023/12/14 09:48:55;;;;;;;10.87;10.37;;;5.50;99.90;;;;;;5009031;28;20219;-66
2023/12/14 09:51:23;;;;;;;11.03;10.53;;;5.40;99.90;;;;;;4981285;28;20556;-66
2023/12/14 09:53:52;;;;;;;11.00;10.50;;;5.50;99.90;;;;;;4990640;28;20215;-69
2023/12/14 09:56:19;;;;;;;11.30;10.80;;;5.50;99.90;;;;;;5009356;28;20201;-66
2023/12/14 09:58:47;;;;;;;11.00;10.50;;;5.60;99.90;;;;;;4991120;28;20657;-65
2023/12/14 10:01:24;;;;;;;11.10;10.60;;;5.50;99.90;;;;;;4992140;28;20208;-65
2023/12/14 10:04:24;;;;;;;10.97;10.47;;;5.60;99.90;;;;;;5009541;28;20200;-66
2023/12/14 10:06:51;;;;;;;10.60;10.10;;;5.70;99.90;;;;;;4944478;28;20976;-67
2023/12/14 10:09:23;;;;;;;10.73;10.23;;;5.60;99.90;;;;;;5008849;28;20209;-66
2023/12/14 10:12:05;;;;;;;11.03;10.53;;;5.70;99.90;;;;;;4991318;28;20205;-65
2023/12/14 10:14:33;;;;;;;10.80;10.30;;;5.70;99.90;;;;;;5012112;28;20193;-65
2023/12/14 10:17:16;;;;;;;10.87;10.37;;;5.70;99.90;;;;;;4995163;28;20661;-65
2023/12/14 10:19:44;;;;;;;11.17;10.67;;;5.70;99.90;;;;;;5005640;28;20200;-65
2023/12/14 10:22:15;;;;;;;11.10;10.60;;;5.70;99.90;;;;;;5013715;28;20263;-65
2023/12/14 10:24:47;;;;;;;11.10;10.60;;;5.70;99.90;;;;;;4980235;28;20568;-66
2023/12/14 10:27:15;;;;;;;11.40;10.90;;;5.80;99.90;;;;;;4991462;28;20241;-65
2023/12/14 10:29:45;;;;;;;11.60;11.00;;;5.80;99.90;;;;;;5011101;28;20646;-70
2023/12/14 10:32:12;;;;;;;11.43;10.93;;;5.80;99.90;;;;;;5014097;28;20776;-70
2023/12/14 10:34:40;;;;;;;11.40;10.90;;;5.80;99.90;;;;;;5014358;28;20307;-72
2023/12/14 10:37:09;;;;;;;11.97;11.37;;;5.80;99.90;;;;;;5015279;28;20197;-71
2023/12/14 10:39:40;;;;;;;11.40;10.90;;;5.70;99.90;;;;;;4980022;28;20212;-72
2023/12/14 10:42:09;;;;;;;11.80;11.20;;;5.70;99.90;;;;;;4992480;28;20200;-71
2023/12/14 10:44:54;;;;;;;11.40;10.90;;;5.80;99.90;;;;;;5014026;28;20196;-72
2023/12/14 10:47:46;;;;;;;11.77;11.17;;;5.90;99.90;;;;;;4981024;28;20251;-71
2023/12/14 10:50:15;;;;;;;11.50;11.00;;;5.90;99.90;;;;;;4997443;28;20234;-71
2023/12/14 10:52:44;;;;;;;11.60;11.00;;;6.00;99.90;;;;;;5006474;28;20687;-71
2023/12/14 10:55:21;;;;;;;11.63;11.07;;;5.90;99.90;;;;;;4977403;28;20201;-70
2023/12/14 10:57:48;;;;;;;11.43;10.93;;;5.90;99.90;;;;;;4993109;28;20919;-71
2023/12/14 11:00:17;;;;;;;11.63;11.10;;;6.00;99.90;;;;;;5014280;28;20291;-72
2023/12/14 11:02:48;;;;;;;11.63;11.07;;;6.00;99.90;;;;;;4996603;28;20607;-71
2023/12/14 11:05:19;;;;;;;11.83;11.23;;;6.10;99.90;;;;;;5014637;28;20197;-71
2023/12/14 11:08:01;;;;;;;11.80;11.20;;;6.10;99.90;;;;;;5013471;28;20227;-70
2023/12/14 11:10:56;;;;;;;12.10;11.50;;;6.20;99.90;;;;;;5008314;28;20305;-67
2023/12/14 11:13:24;;;;;;;11.93;11.33;;;6.20;99.90;;;;;;5010959;28;20216;-65
2023/12/14 11:15:52;;;;;;;11.77;11.17;;;6.20;99.90;;;;;;4994838;28;20204;-64
2023/12/14 11:18:24;;;;;;;12.10;11.50;;;6.10;99.90;;;;;;4994484;28;20230;-70
2023/12/14 11:20:56;;;;;;;12.40;11.80;;;6.10;99.90;;;;;;4982433;28;20209;-69
2023/12/14 11:23:30;;;;;;;12.40;11.80;;;6.00;99.90;;;;;;4989210;28;20216;-77
2023/12/14 11:26:00;;;;;;;12.30;11.70;;;6.00;99.90;;;;;;4980703;28;20200;-73
2023/12/14 11:28:27;;;;;;;12.20;11.60;;;5.90;99.90;;;;;;5009281;28;20307;-68
2023/12/14 11:30:56;;;;;;;12.20;11.60;;;5.90;99.90;;;;;;4993993;28;20217;-67
2023/12/14 11:33:24;;;;;;;12.40;11.80;;;5.90;99.90;;;;;;5011317;28;20212;-67
2023/12/14 11:35:52;;;;;;;12.60;12.00;;;5.90;99.90;;;;;;4994903;28;20338;-68
2023/12/14 11:38:21;;;;;;;12.40;11.80;;;5.80;99.90;;;;;;4994500;28;20201;-67
2023/12/14 11:40:50;;;;;;;12.10;11.50;;;5.90;99.90;;;;;;4982966;28;20197;-68
2023/12/14 11:43:20;;;;;;;12.20;11.60;;;5.90;99.90;;;;;;4985135;28;20269;-67
2023/12/14 11:45:49;;;;;;;12.67;12.07;;;6.00;99.90;;;;;;5021405;28;20282;-67
2023/12/14 11:48:16;;;;;;;12.10;11.50;;;6.00;99.90;;;;;;5011897;28;20247;-65
2023/12/14 11:50:44;;;;;;;12.10;11.50;;;5.80;99.90;;;;;;5010645;28;20208;-67
2023/12/14 11:53:12;;;;;;;12.20;11.60;;;5.90;99.90;;;;;;5010935;28;20239;-67
2023/12/14 11:55:44;;;;;;;12.10;11.50;;;5.90;99.90;;;;;;4993801;28;20267;-68
2023/12/14 11:58:16;;;;;;;11.50;11.00;;;6.00;99.90;;;;;;4999182;28;20193;-69
2023/12/14 12:00:44;;;;;;;12.33;11.73;;;6.00;99.90;;;;;;5012277;28;20524;-67
2023/12/14 12:03:15;;;;;;;12.10;11.50;;;5.90;99.90;;;;;;5012391;28;20192;-68
2023/12/14 12:05:46;;;;;;;12.53;11.93;;;5.80;99.90;;;;;;5005846;28;20202;-67
2023/12/14 12:08:15;;;;;;;12.80;12.20;;;5.80;99.90;;;;;;4999605;28;20292;-67
2023/12/14 12:10:43;;;;;;;12.60;12.00;;;5.90;99.90;;;;;;5003585;28;20239;-67
2023/12/14 12:13:18;;;;;;;12.30;11.70;;;5.90;99.90;;;;;;4994010;28;20237;-68
2023/12/14 12:15:46;;;;;;;12.50;11.90;;;5.80;99.90;;;;;;4985760;28;20205;-68
2023/12/14 12:18:16;;;;;;;12.60;12.00;;;5.90;99.90;;;;;;5000361;28;20196;-69
2023/12/14 12:20:43;;;;;;;12.70;12.10;;;6.00;99.90;;;;;;4998093;28;20656;-69
2023/12/14 12:23:10;;;;;;;12.00;11.40;;;6.10;99.90;;;;;;4974854;28;20253;-69
2023/12/14 12:25:38;;;;;;;12.20;11.60;;;6.20;99.90;;;;;;4993781;28;20255;-69
2023/12/14 12:28:05;;;;;;;13.50;12.80;;;6.30;99.90;;;;;;4993196;28;20595;-69
2023/12/14 12:30:32;;;;;;;12.20;11.60;;;6.30;99.90;;;;;;5015009;28;20733;-69
2023/12/14 12:33:01;;;;;;;12.30;11.70;;;6.30;99.90;;;;;;5016928;28;20554;-69
2023/12/14 12:35:30;;;;;;;13.70;13.00;;;6.30;99.90;;;;;;5010705;28;20189;-69
2023/12/14 12:37:57;;;;;;;12.63;12.03;;;6.20;99.90;;;;;;4982619;28;20197;-69
2023/12/14 12:40:27;;;;;;;12.30;11.70;;;6.30;99.90;;;;;;4991613;28;20299;-69
2023/12/14 12:42:54;;;;;;;12.43;11.83;;;6.30;99.90;;;;;;5009294;28;20224;-69
2023/12/14 12:45:22;;;;;;;12.20;11.60;;;6.00;99.90;;;;;;5009683;28;20247;-69
2023/12/14 12:47:49;;;;;;;12.10;11.50;;;6.20;99.90;;;;;;5009636;28;20228;-68
2023/12/14 12:50:17;;;;;;;12.20;11.60;;;6.30;99.90;;;;;;4990353;28;20244;-68
2023/12/14 12:52:48;;;;;;;12.00;11.40;;;6.50;99.90;;;;;;5011834;28;20630;-68
2023/12/14 12:55:15;;;;;;;12.30;11.70;;;6.40;99.90;;;;;;4991965;28;20606;-68
2023/12/14 12:57:43;;;;;;;12.30;11.70;;;6.50;99.90;;;;;;4991295;28;20208;-68
2023/12/14 13:00:13;;;;;;;12.33;11.73;;;6.40;99.90;;;;;;5009319;28;20193;-68